Time;durP1;ratioP1;P1;durP2;ratioP2;P2;SDS_P1;SDS_P2;PMS_P1;PMS_P2;Temp;Humidity;BMP_temperature;BMP_pressure;BME280_temperature;BME280_humidity;BME280_pressure;Samples;Min_cycle;Max_cycle;Signal;HPM_P1;HPM_P2
2022/04/29 00:01:23;;;;;;;;;;;;;;;;;;5026954;28;19993;-54
2022/04/29 00:03:48;;;;;;;;;;;;;;;;;;5027016;28;20314;-54
2022/04/29 00:06:14;;;;;;;;;;;;;;;;;;5027997;28;19948;-54
2022/04/29 00:08:39;;;;;;;;;;;;;;;;;;5028380;28;20002;-54
2022/04/29 00:11:06;;;;;;;;;;;;;;;;;;5030281;28;19921;-53
2022/04/29 00:13:32;;;;;;;;;;;;;;;;;;5025422;28;19929;-54
2022/04/29 00:15:57;;;;;;;;;;;;;;;;;;5028941;28;20382;-53
2022/04/29 00:18:23;;;;;;;;;;;;;;;;;;5028746;28;19940;-54
2022/04/29 00:20:49;;;;;;;;;;;;;;;;;;5028287;28;19929;-53
2022/04/29 00:23:14;;;;;;;;;;;;;;;;;;5026815;28;20619;-55
2022/04/29 00:25:40;;;;;;;;;;;;;;;;;;5029734;28;19924;-55
2022/04/29 00:28:05;;;;;;;;;;;;;;;;;;5023713;28;19921;-53
2022/04/29 00:30:31;;;;;;;;;;;;;;;;;;5026242;28;19932;-53
2022/04/29 00:32:56;;;;;;;;;;;;;;;;;;5020824;28;19949;-53
2022/04/29 00:35:22;;;;;;;;;;;;;;;;;;5023911;28;20338;-53
2022/04/29 00:37:51;;;;;;;;;;;;;;;;;;5031408;28;20304;-54
2022/04/29 00:40:18;;;;;;;;;;;;;;;;;;5033826;28;19936;-57
2022/04/29 00:42:45;;;;;;;;;;;;;;;;;;5028681;28;19960;-53
2022/04/29 00:45:10;;;;;;;;;;;;;;;;;;5026400;28;19952;-56
2022/04/29 00:47:35;;;;;;;;;;;;;;;;;;5025377;28;19952;-53
2022/04/29 00:50:01;;;;;;;;;;;;;;;;;;5025914;28;19925;-53
2022/04/29 00:52:28;;;;;;;;;;;;;;;;;;5022658;28;19942;-53
2022/04/29 00:54:55;;;;;;;;;;;;;;;;;;5024094;28;19917;-54
2022/04/29 00:57:24;;;;;;;;;;;;;;;;;;5032615;28;19955;-53
2022/04/29 00:59:54;;;;;;;;;;;;;;;;;;5029248;28;19937;-53
2022/04/29 01:02:19;;;;;;;;;;;;;;;;;;5026991;28;20015;-53
2022/04/29 01:04:48;;;;;;;;;;;;;;;;;;5026070;28;20572;-53
2022/04/29 01:07:13;;;;;;;;;;;;;;;;;;5028221;28;19949;-57
2022/04/29 01:09:38;;;;;;;;;;;;;;;;;;5038025;28;19964;-53
2022/04/29 01:12:04;;;;;;;;;;;;;;;;;;5028324;28;19944;-56
2022/04/29 01:14:29;;;;;;;;;;;;;;;;;;5026428;28;20379;-53
2022/04/29 01:16:58;;;;;;;;;;;;;;;;;;5027362;28;20012;-52
2022/04/29 01:19:23;;;;;;;;;;;;;;;;;;5030629;28;19917;-51
2022/04/29 01:21:50;;;;;;;;;;;;;;;;;;5023289;28;19921;-54
2022/04/29 01:24:15;;;;;;;;;;;;;;;;;;5025804;28;19918;-54
2022/04/29 01:26:40;;;;;;;;;;;;;;;;;;5024692;28;20064;-53
2022/04/29 01:29:07;;;;;;;;;;;;;;;;;;5031078;28;20406;-53
2022/04/29 01:31:32;;;;;;;;;;;;;;;;;;5023493;28;19921;-54
2022/04/29 01:33:57;;;;;;;;;;;;;;;;;;5028810;28;19924;-53
2022/04/29 01:36:23;;;;;;;;;;;;;;;;;;5020011;28;19976;-53
2022/04/29 01:38:48;;;;;;;;;;;;;;;;;;5027355;28;19924;-52
2022/04/29 01:41:13;;;;;;;;;;;;;;;;;;5024598;28;19917;-52
2022/04/29 01:43:39;;;;;;;;;;;;;;;;;;5027510;28;19925;-53
2022/04/29 01:46:04;;;;;;;;;;;;;;;;;;5030274;28;19917;-53
2022/04/29 01:48:29;;;;;;;;;;;;;;;;;;5024429;28;19921;-54
2022/04/29 01:50:55;;;;;;;;;;;;;;;;;;5024770;28;19929;-52
2022/04/29 01:53:20;;;;;;;;;;;;;;;;;;5024570;28;20402;-54
2022/04/29 01:55:46;;;;;;;;;;;;;;;;;;5025776;28;20417;-52
2022/04/29 01:58:11;;;;;;;;;;;;;;;;;;5025744;28;20341;-53
2022/04/29 02:00:37;;;;;;;;;;;;;;;;;;5022524;28;19992;-53
2022/04/29 02:03:02;;;;;;;;;;;;;;;;;;5019377;28;19965;-52
2022/04/29 02:05:27;;;;;;;;;;;;;;;;;;5034084;28;19917;-51
2022/04/29 02:07:53;;;;;;;;;;;;;;;;;;5019062;28;19921;-53
2022/04/29 02:10:18;;;;;;;;;;;;;;;;;;5028647;28;19956;-53
2022/04/29 02:12:43;;;;;;;;;;;;;;;;;;5026302;28;19991;-54
2022/04/29 02:15:09;;;;;;;;;;;;;;;;;;5026638;28;19917;-52
2022/04/29 02:17:34;;;;;;;;;;;;;;;;;;5030154;28;20302;-53
2022/04/29 02:20:00;;;;;;;;;;;;;;;;;;5024714;28;20402;-54
2022/04/29 02:22:25;;;;;;;;;;;;;;;;;;5032618;28;19917;-53
2022/04/29 02:24:50;;;;;;;;;;;;;;;;;;5019758;28;19951;-55
2022/04/29 02:27:16;;;;;;;;;;;;;;;;;;5025836;28;19920;-55
2022/04/29 02:29:41;;;;;;;;;;;;;;;;;;5034085;28;19917;-54
2022/04/29 02:32:07;;;;;;;;;;;;;;;;;;5018364;28;20664;-53
2022/04/29 02:34:32;;;;;;;;;;;;;;;;;;5021796;28;19918;-55
2022/04/29 02:36:57;;;;;;;;;;;;;;;;;;5026717;28;19996;-53
2022/04/29 02:39:23;;;;;;;;;;;;;;;;;;5026007;28;20008;-53
2022/04/29 02:41:48;;;;;;;;;;;;;;;;;;5027706;28;20394;-52
2022/04/29 02:44:13;;;;;;;;;;;;;;;;;;5025212;28;19924;-51
2022/04/29 02:47:06;;;;;;;;;;;;;;;;;;5025236;28;19957;-54
2022/04/29 02:49:24;;;;;;;;;;;;;;;;;;5026364;28;19921;-54
2022/04/29 02:51:49;;;;;;;;;;;;;;;;;;5021977;28;19921;-52
2022/04/29 02:54:15;;;;;;;;;;;;;;;;;;5020635;28;19957;-53
2022/04/29 02:56:41;;;;;;;;;;;;;;;;;;5022488;28;20314;-52
2022/04/29 02:59:06;;;;;;;;;;;;;;;;;;5025164;28;19932;-54
2022/04/29 03:01:33;;;;;;;;;;;;;;;;;;5031093;28;19917;-53
2022/04/29 03:03:59;;;;;;;;;;;;;;;;;;5026409;28;19917;-53
2022/04/29 03:06:24;;;;;;;;;;;;;;;;;;5028843;28;19924;-54
2022/04/29 03:08:49;;;;;;;;;;;;;;;;;;5030798;28;20361;-54
2022/04/29 03:11:14;;;;;;;;;;;;;;;;;;5029721;28;20399;-52
2022/04/29 03:13:40;;;;;;;;;;;;;;;;;;5025061;28;19970;-53
2022/04/29 03:16:05;;;;;;;;;;;;;;;;;;5025120;28;19928;-54
2022/04/29 03:18:30;;;;;;;;;;;;;;;;;;5033485;28;19921;-52
2022/04/29 03:20:58;;;;;;;;;;;;;;;;;;5028269;28;19921;-53
2022/04/29 03:23:24;;;;;;;;;;;;;;;;;;5024865;28;19917;-50
2022/04/29 03:25:49;;;;;;;;;;;;;;;;;;5026354;28;19917;-50
2022/04/29 03:28:15;;;;;;;;;;;;;;;;;;5030491;28;19986;-54
2022/04/29 03:30:41;;;;;;;;;;;;;;;;;;5023990;28;19978;-54
2022/04/29 03:33:06;;;;;;;;;;;;;;;;;;5024528;28;19917;-53
2022/04/29 03:35:37;;;;;;;;;;;;;;;;;;5026850;28;19939;-53
2022/04/29 03:38:02;;;;;;;;;;;;;;;;;;5023113;28;19956;-53
2022/04/29 03:40:28;;;;;;;;;;;;;;;;;;5027865;28;20322;-55
2022/04/29 03:42:54;;;;;;;;;;;;;;;;;;5026619;28;19987;-53
2022/04/29 03:45:20;;;;;;;;;;;;;;;;;;5025781;28;19936;-53
2022/04/29 03:47:46;;;;;;;;;;;;;;;;;;5026136;28;20453;-54
2022/04/29 03:50:11;;;;;;;;;;;;;;;;;;5030549;28;20012;-54
2022/04/29 03:52:53;;;;;;;;;;;;;;;;;;5030763;28;19927;-54
2022/04/29 03:55:19;;;;;;;;;;;;;;;;;;5025130;28;19921;-53
2022/04/29 03:57:44;;;;;;;;;;;;;;;;;;5024734;28;19979;-53
2022/04/29 04:00:10;;;;;;;;;;;;;;;;;;5033666;28;20008;-54
2022/04/29 04:02:35;;;;;;;;;;;;;;;;;;5024964;28;19975;-51
2022/04/29 04:05:01;;;;;;;;;;;;;;;;;;5025392;28;20366;-50
2022/04/29 04:07:26;;;;;;;;;;;;;;;;;;5027526;28;19921;-52
2022/04/29 04:09:51;;;;;;;;;;;;;;;;;;5030201;28;19917;-53
2022/04/29 04:12:16;;;;;;;;;;;;;;;;;;5028668;28;20169;-54
2022/04/29 04:14:42;;;;;;;;;;;;;;;;;;5027083;28;20379;-51
2022/04/29 04:17:07;;;;;;;;;;;;;;;;;;5025943;28;20288;-54
2022/04/29 04:19:34;;;;;;;;;;;;;;;;;;5024513;28;19917;-52
2022/04/29 04:21:59;;;;;;;;;;;;;;;;;;5026639;28;19917;-54
2022/04/29 04:24:24;;;;;;;;;;;;;;;;;;5023034;28;19924;-51
2022/04/29 04:26:50;;;;;;;;;;;;;;;;;;5024069;28;20012;-51
2022/04/29 04:29:15;;;;;;;;;;;;;;;;;;5030488;28;19921;-52
2022/04/29 04:31:40;;;;;;;;;;;;;;;;;;5026306;28;20362;-51
2022/04/29 04:34:51;;;;;;;;;;;;;;;;;;5023103;28;19917;-52
2022/04/29 04:36:54;;;;;;;;;;;;;;;;;;5020809;28;19917;-51
2022/04/29 04:39:19;;;;;;;;;;;;;;;;;;5022961;28;19917;-54
2022/04/29 04:41:45;;;;;;;;;;;;;;;;;;5028371;28;19928;-54
2022/04/29 04:44:10;;;;;;;;;;;;;;;;;;5024787;28;19952;-53
2022/04/29 04:46:38;;;;;;;;;;;;;;;;;;5026700;28;19918;-52
2022/04/29 04:49:04;;;;;;;;;;;;;;;;;;5031855;28;20040;-53
2022/04/29 04:51:29;;;;;;;;;;;;;;;;;;5029494;28;19957;-53
2022/04/29 04:53:54;;;;;;;;;;;;;;;;;;5029265;28;20010;-52
2022/04/29 04:56:20;;;;;;;;;;;;;;;;;;5023136;28;19925;-53
2022/04/29 04:58:45;;;;;;;;;;;;;;;;;;5025233;28;19971;-55
2022/04/29 05:01:11;;;;;;;;;;;;;;;;;;5023802;28;19921;-58
2022/04/29 05:03:36;;;;;;;;;;;;;;;;;;5020716;28;20260;-56
2022/04/29 05:06:01;;;;;;;;;;;;;;;;;;5022980;28;20290;-56
2022/04/29 05:08:26;;;;;;;;;;;;;;;;;;5022320;28;19980;-56
2022/04/29 05:10:52;;;;;;;;;;;;;;;;;;5030356;28;19917;-56
2022/04/29 05:13:17;;;;;;;;;;;;;;;;;;5023980;28;19917;-56
2022/04/29 05:15:42;;;;;;;;;;;;;;;;;;5027555;28;20310;-56
2022/04/29 05:18:08;;;;;;;;;;;;;;;;;;5021671;28;19928;-55
2022/04/29 05:20:34;;;;;;;;;;;;;;;;;;5028904;28;19917;-56
2022/04/29 05:22:59;;;;;;;;;;;;;;;;;;5019696;28;19917;-56
2022/04/29 05:25:24;;;;;;;;;;;;;;;;;;5027253;28;19928;-56
2022/04/29 05:27:49;;;;;;;;;;;;;;;;;;5025155;28;19921;-58
2022/04/29 05:30:15;;;;;;;;;;;;;;;;;;5025555;28;19918;-55
2022/04/29 05:32:40;;;;;;;;;;;;;;;;;;5026056;28;19917;-55
2022/04/29 05:35:06;;;;;;;;;;;;;;;;;;5023426;28;20425;-56
2022/04/29 05:37:31;;;;;;;;;;;;;;;;;;5027146;28;19952;-56
2022/04/29 05:42:40;;;;;;;;;;;;;;;;;;5032295;28;19923;-56
2022/04/29 05:45:06;;;;;;;;;;;;;;;;;;5017794;28;19922;-56
2022/04/29 05:47:31;;;;;;;;;;;;;;;;;;5022223;28;19920;-56
2022/04/29 05:49:57;;;;;;;;;;;;;;;;;;5028524;28;19979;-50
2022/04/29 05:52:23;;;;;;;;;;;;;;;;;;5027776;28;19921;-48
2022/04/29 05:54:48;;;;;;;;;;;;;;;;;;5021359;28;19917;-49
2022/04/29 05:57:13;;;;;;;;;;;;;;;;;;5019659;28;19963;-57
2022/04/29 05:59:39;;;;;;;;;;;;;;;;;;5020980;28;20242;-53
2022/04/29 06:02:04;;;;;;;;;;;;;;;;;;5022120;28;19917;-57
2022/04/29 06:04:29;;;;;;;;;;;;;;;;;;5017752;28;20008;-57
2022/04/29 06:06:55;;;;;;;;;;;;;;;;;;5029025;28;20402;-57
2022/04/29 06:09:20;;;;;;;;;;;;;;;;;;5019558;28;19949;-58
2022/04/29 06:11:46;;;;;;;;;;;;;;;;;;5021839;28;19927;-58
2022/04/29 06:14:11;;;;;;;;;;;;;;;;;;5024773;28;20276;-57
2022/04/29 06:16:37;;;;;;;;;;;;;;;;;;5023651;28;19998;-57
2022/04/29 06:19:02;;;;;;;;;;;;;;;;;;5024127;28;21662;-57
2022/04/29 06:21:27;;;;;;;;;;;;;;;;;;5020602;28;19924;-57
2022/04/29 06:23:53;;;;;;;;;;;;;;;;;;5022538;28;19925;-57
2022/04/29 06:26:18;;;;;;;;;;;;;;;;;;5023485;28;19917;-57
2022/04/29 06:28:43;;;;;;;;;;;;;;;;;;5027664;28;20016;-57
2022/04/29 06:31:09;;;;;;;;;;;;;;;;;;5024605;28;20010;-57
2022/04/29 06:33:35;;;;;;;;;;;;;;;;;;5022921;28;20338;-57
2022/04/29 06:36:01;;;;;;;;;;;;;;;;;;5023671;28;20004;-57
2022/04/29 06:38:27;;;;;;;;;;;;;;;;;;5034205;28;19924;-55
2022/04/29 06:41:00;;;;;;;;;;;;;;;;;;5026702;28;19925;-57
2022/04/29 06:43:28;;;;;;;;;;;;;;;;;;5022408;28;19925;-57
2022/04/29 06:45:53;;;;;;;;;;;;;;;;;;5026309;28;19920;-57
2022/04/29 06:48:18;;;;;;;;;;;;;;;;;;5028918;28;20409;-57
2022/04/29 06:50:44;;;;;;;;;;;;;;;;;;5029619;28;19932;-57
2022/04/29 06:53:09;;;;;;;;;;;;;;;;;;5026487;28;19917;-57
2022/04/29 06:55:38;;;;;;;;;;;;;;;;;;5025712;28;20445;-58
2022/04/29 06:58:03;;;;;;;;;;;;;;;;;;5029660;28;19994;-59
2022/04/29 07:00:28;;;;;;;;;;;;;;;;;;5027704;28;20426;-49
2022/04/29 07:02:56;;;;;;;;;;;;;;;;;;5026212;28;19933;-49
2022/04/29 07:05:21;;;;;;;;;;;;;;;;;;5030122;28;20393;-57
2022/04/29 07:07:49;;;;;;;;;;;;;;;;;;5025186;28;19925;-57
2022/04/29 07:10:15;;;;;;;;;;;;;;;;;;5026379;28;20383;-57
2022/04/29 07:12:44;;;;;;;;;;;;;;;;;;5026129;28;19971;-57
2022/04/29 07:15:10;;;;;;;;;;;;;;;;;;5022921;28;19917;-57
2022/04/29 07:17:35;;;;;;;;;;;;;;;;;;5020241;28;20275;-57
2022/04/29 07:20:01;;;;;;;;;;;;;;;;;;5028428;28;19921;-57
2022/04/29 07:22:26;;;;;;;;;;;;;;;;;;5024129;28;19972;-57
2022/04/29 07:24:52;;;;;;;;;;;;;;;;;;5024950;28;19917;-57
2022/04/29 07:27:17;;;;;;;;;;;;;;;;;;5023116;28;19921;-57
2022/04/29 07:29:42;;;;;;;;;;;;;;;;;;5023605;28;20123;-56
2022/04/29 07:32:08;;;;;;;;;;;;;;;;;;5026623;28;20013;-57
2022/04/29 07:42:45;;;;;;;;;;;;;;;;;;5021498;28;19986;-57
2022/04/29 07:45:10;;;;;;;;;;;;;;;;;;5025082;28;20023;-57
2022/04/29 07:47:36;;;;;;;;;;;;;;;;;;5033484;28;19975;-57
2022/04/29 07:50:05;;;;;;;;;;;;;;;;;;5031893;28;19917;-57
2022/04/29 07:52:31;;;;;;;;;;;;;;;;;;5029695;28;20259;-57
2022/04/29 07:54:56;;;;;;;;;;;;;;;;;;5020812;28;19936;-57
2022/04/29 07:57:22;;;;;;;;;;;;;;;;;;5024714;28;20462;-57
2022/04/29 07:59:47;;;;;;;;;;;;;;;;;;5021522;28;20007;-57
2022/04/29 08:02:12;;;;;;;;;;;;;;;;;;5027150;28;19923;-57
2022/04/29 08:04:37;;;;;;;;;;;;;;;;;;5025164;28;19918;-57
2022/04/29 08:07:03;;;;;;;;;;;;;;;;;;5022671;28;19925;-57
2022/04/29 08:09:28;;;;;;;;;;;;;;;;;;5018465;28;19921;-57
2022/04/29 08:11:53;;;;;;;;;;;;;;;;;;5030972;28;19917;-58
2022/04/29 08:14:20;;;;;;;;;;;;;;;;;;5020845;28;20355;-57
2022/04/29 08:16:45;;;;;;;;;;;;;;;;;;5024499;28;19917;-57
2022/04/29 08:19:11;;;;;;;;;;;;;;;;;;5022562;28;20012;-57
2022/04/29 08:21:36;;;;;;;;;;;;;;;;;;5021055;28;19927;-57
2022/04/29 08:24:02;;;;;;;;;;;;;;;;;;5027755;28;19921;-57
2022/04/29 08:26:28;;;;;;;;;;;;;;;;;;5024730;28;19935;-58
2022/04/29 08:28:54;;;;;;;;;;;;;;;;;;5015077;28;19921;-56
2022/04/29 08:31:21;;;;;;;;;;;;;;;;;;5017022;28;19921;-57
2022/04/29 08:33:46;;;;;;;;;;;;;;;;;;5021242;28;19944;-57
2022/04/29 08:36:11;;;;;;;;;;;;;;;;;;5027377;28;19983;-57
2022/04/29 08:38:37;;;;;;;;;;;;;;;;;;5025817;28;19921;-57
2022/04/29 08:41:03;;;;;;;;;;;;;;;;;;5030485;28;19916;-57
2022/04/29 08:43:31;;;;;;;;;;;;;;;;;;5027377;28;19917;-57
2022/04/29 08:45:57;;;;;;;;;;;;;;;;;;5027643;28;20015;-57
2022/04/29 08:48:23;;;;;;;;;;;;;;;;;;5022388;28;20472;-57
2022/04/29 08:50:48;;;;;;;;;;;;;;;;;;5029075;28;19917;-57
2022/04/29 08:53:15;;;;;;;;;;;;;;;;;;5023626;28;20410;-57
2022/04/29 08:58:37;;;;;;;;;;;;;;;;;;5019914;28;19973;-57
2022/04/29 09:01:05;;;;;;;;;;;;;;;;;;5025735;28;19917;-57
2022/04/29 09:03:30;;;;;;;;;;;;;;;;;;5023816;28;20442;-56
2022/04/29 09:05:56;;;;;;;;;;;;;;;;;;5026119;28;19925;-57
2022/04/29 09:08:22;;;;;;;;;;;;;;;;;;5024257;28;20385;-57
2022/04/29 09:10:49;;;;;;;;;;;;;;;;;;5021203;28;20352;-57
2022/04/29 09:13:25;;;;;;;;;;;;;;;;;;5025409;28;19921;-57
2022/04/29 09:16:00;;;;;;;;;;;;;;;;;;5018341;28;19975;-57
2022/04/29 09:18:28;;;;;;;;;;;;;;;;;;5019308;28;20395;-57
2022/04/29 09:20:53;;;;;;;;;;;;;;;;;;5021477;28;20093;-57
2022/04/29 09:23:25;;;;;;;;;;;;;;;;;;5016722;28;20179;-57
2022/04/29 09:25:50;;;;;;;;;;;;;;;;;;5020555;28;20028;-57
2022/04/29 09:28:16;;;;;;;;;;;;;;;;;;5021690;28;20016;-57
2022/04/29 09:30:41;;;;;;;;;;;;;;;;;;5021654;28;20023;-57
2022/04/29 09:33:16;;;;;;;;;;;;;;;;;;5028323;28;20463;-57
2022/04/29 09:35:42;;;;;;;;;;;;;;;;;;5023233;28;20066;-57
2022/04/29 09:40:53;;;;;;;;;;;;;;;;;;5023215;28;20020;-57
2022/04/29 09:43:37;;;;;;;;;;;;;;;;;;5025669;28;20356;-57
2022/04/29 09:46:11;;;;;;;;;;;;;;;;;;5022292;28;20015;-58
2022/04/29 09:48:55;;;;;;;;;;;;;;;;;;5025080;28;20473;-57
2022/04/29 09:51:39;;;;;;;;;;;;;;;;;;5022062;28;20298;-58
2022/04/29 09:54:08;;;;;;;;;;;;;;;;;;5021623;28;19928;-57
2022/04/29 09:56:34;;;;;;;;;;;;;;;;;;5021583;28;19917;-57
2022/04/29 09:58:59;;;;;;;;;;;;;;;;;;5019981;28;19924;-57
2022/04/29 10:01:24;;;;;;;;;;;;;;;;;;5024961;28;19978;-57
2022/04/29 10:03:50;;;;;;;;;;;;;;;;;;5023792;28;20362;-57
2022/04/29 10:06:17;;;;;;;;;;;;;;;;;;5020354;28;20294;-57
2022/04/29 10:08:44;;;;;;;;;;;;;;;;;;5022559;28;19995;-58
2022/04/29 10:11:09;;;;;;;;;;;;;;;;;;5031367;28;19917;-58
2022/04/29 10:13:35;;;;;;;;;;;;;;;;;;5030534;28;19924;-58
2022/04/29 10:16:01;;;;;;;;;;;;;;;;;;5023259;28;19921;-58
2022/04/29 10:21:16;;;;;;;;;;;;;;;;;;5030389;28;20294;-57
2022/04/29 10:23:48;;;;;;;;;;;;;;;;;;5030457;28;19921;-58
2022/04/29 10:26:13;;;;;;;;;;;;;;;;;;5028471;28;19925;-58
2022/04/29 10:28:39;;;;;;;;;;;;;;;;;;5024209;28;20315;-58
2022/04/29 10:31:06;;;;;;;;;;;;;;;;;;5030257;28;19921;-57
2022/04/29 10:33:31;;;;;;;;;;;;;;;;;;5029948;28;20244;-60
2022/04/29 10:36:04;;;;;;;;;;;;;;;;;;5029275;28;20422;-57
2022/04/29 10:38:31;;;;;;;;;;;;;;;;;;5027476;28;20137;-57
2022/04/29 10:41:09;;;;;;;;;;;;;;;;;;5038912;28;19921;-57
2022/04/29 10:43:50;;;;;;;;;;;;;;;;;;5033679;28;19916;-57
2022/04/29 10:46:15;;;;;;;;;;;;;;;;;;5028429;28;20291;-57
2022/04/29 10:48:42;;;;;;;;;;;;;;;;;;5028519;28;19928;-57
2022/04/29 10:51:10;;;;;;;;;;;;;;;;;;5034273;28;20410;-57
2022/04/29 10:53:37;;;;;;;;;;;;;;;;;;5024249;28;19917;-57
2022/04/29 10:56:21;;;;;;;;;;;;;;;;;;5023938;28;19944;-57
2022/04/29 10:58:46;;;;;;;;;;;;;;;;;;5024611;28;19913;-57
2022/04/29 11:01:14;;;;;;;;;;;;;;;;;;5028403;28;20168;-57
2022/04/29 11:03:41;;;;;;;;;;;;;;;;;;5029110;28;19922;-57
2022/04/29 11:06:10;;;;;;;;;;;;;;;;;;5024911;28;19916;-58
2022/04/29 11:08:35;;;;;;;;;;;;;;;;;;5030906;28;19979;-57
2022/04/29 11:11:00;;;;;;;;;;;;;;;;;;5025325;28;19921;-58
2022/04/29 11:13:30;;;;;;;;;;;;;;;;;;5027398;28;19993;-58
2022/04/29 11:16:06;;;;;;;;;;;;;;;;;;5026194;28;19917;-58
2022/04/29 11:18:31;;;;;;;;;;;;;;;;;;5035511;28;19920;-58
2022/04/29 11:20:59;;;;;;;;;;;;;;;;;;5023768;28;19921;-55
2022/04/29 11:26:16;;;;;;;;;;;;;;;;;;5019000;28;19929;-58
2022/04/29 11:28:41;;;;;;;;;;;;;;;;;;5022974;28;19921;-58
2022/04/29 11:31:08;;;;;;;;;;;;;;;;;;5021116;28;19917;-58
2022/04/29 11:33:34;;;;;;;;;;;;;;;;;;5021415;28;19920;-58
2022/04/29 11:36:01;;;;;;;;;;;;;;;;;;5024960;28;19932;-58
2022/04/29 11:38:26;;;;;;;;;;;;;;;;;;5028626;28;19920;-58
2022/04/29 11:40:52;;;;;;;;;;;;;;;;;;5026241;28;19939;-57
2022/04/29 11:43:21;;;;;;;;;;;;;;;;;;5025667;28;19924;-53
2022/04/29 11:45:58;;;;;;;;;;;;;;;;;;5025064;28;19939;-52
2022/04/29 11:48:23;;;;;;;;;;;;;;;;;;5018094;28;19948;-53
2022/04/29 11:50:48;;;;;;;;;;;;;;;;;;5029531;28;20378;-54
2022/04/29 11:53:14;;;;;;;;;;;;;;;;;;5022079;28;19917;-53
2022/04/29 11:55:39;;;;;;;;;;;;;;;;;;5028519;28;19952;-57
2022/04/29 11:58:05;;;;;;;;;;;;;;;;;;5029064;28;19936;-57
2022/04/29 12:00:32;;;;;;;;;;;;;;;;;;5027516;28;20395;-57
2022/04/29 12:02:59;;;;;;;;;;;;;;;;;;5026079;28;19925;-59
2022/04/29 12:05:25;;;;;;;;;;;;;;;;;;5020166;28;19929;-57
2022/04/29 12:07:50;;;;;;;;;;;;;;;;;;5020474;28;19920;-57
2022/04/29 12:10:26;;;;;;;;;;;;;;;;;;5022137;28;19924;-57
2022/04/29 12:12:55;;;;;;;;;;;;;;;;;;5019081;28;20024;-57
2022/04/29 12:15:23;;;;;;;;;;;;;;;;;;5029751;28;20230;-58
2022/04/29 12:17:49;;;;;;;;;;;;;;;;;;5023362;28;20321;-58
2022/04/29 12:20:15;;;;;;;;;;;;;;;;;;5022430;28;19924;-60
2022/04/29 12:22:41;;;;;;;;;;;;;;;;;;5018857;28;19983;-59
2022/04/29 12:25:22;;;;;;;;;;;;;;;;;;5019600;28;19921;-59
2022/04/29 12:28:06;;;;;;;;;;;;;;;;;;5017773;28;19921;-59
2022/04/29 12:36:12;;;;;;;;;;;;;;;;;;5029357;28;19924;-58
2022/04/29 12:38:38;;;;;;;;;;;;;;;;;;5026295;28;19948;-59
2022/04/29 12:41:32;;;;;;;;;;;;;;;;;;5027205;28;19936;-59
2022/04/29 12:47:01;;;;;;;;;;;;;;;;;;5021347;28;19927;-59
2022/04/29 12:49:27;;;;;;;;;;;;;;;;;;5023811;28;20011;-60
2022/04/29 12:51:58;;;;;;;;;;;;;;;;;;5020863;28;20366;-59
2022/04/29 12:54:25;;;;;;;;;;;;;;;;;;5022361;28;19937;-59
2022/04/29 12:56:51;;;;;;;;;;;;;;;;;;5021106;28;20414;-59
2022/04/29 12:59:23;;;;;;;;;;;;;;;;;;5030048;28;19928;-59
2022/04/29 13:01:49;;;;;;;;;;;;;;;;;;5022576;28;19917;-59
2022/04/29 13:04:14;;;;;;;;;;;;;;;;;;5024343;28;19924;-60
2022/04/29 13:06:39;;;;;;;;;;;;;;;;;;5022112;28;20315;-59
2022/04/29 13:09:05;;;;;;;;;;;;;;;;;;5027648;28;19929;-59
2022/04/29 13:11:32;;;;;;;;;;;;;;;;;;5020137;28;20093;-59
2022/04/29 13:13:58;;;;;;;;;;;;;;;;;;5026028;28;19972;-59
2022/04/29 13:16:23;;;;;;;;;;;;;;;;;;5013223;28;20006;-57
2022/04/29 13:18:49;;;;;;;;;;;;;;;;;;5018101;28;19924;-58
2022/04/29 13:21:15;;;;;;;;;;;;;;;;;;5019423;28;20443;-58
2022/04/29 13:23:41;;;;;;;;;;;;;;;;;;5016240;28;19913;-59
2022/04/29 13:26:07;;;;;;;;;;;;;;;;;;5022291;28;20131;-58
2022/04/29 13:28:33;;;;;;;;;;;;;;;;;;5030864;28;19927;-58
2022/04/29 13:30:59;;;;;;;;;;;;;;;;;;5024443;28;20335;-58
2022/04/29 13:33:24;;;;;;;;;;;;;;;;;;5018599;28;20036;-58
2022/04/29 13:35:50;;;;;;;;;;;;;;;;;;5022533;28;19967;-58
2022/04/29 13:38:15;;;;;;;;;;;;;;;;;;5024103;28;19913;-58
2022/04/29 13:40:41;;;;;;;;;;;;;;;;;;5030899;28;19924;-59
2022/04/29 13:43:06;;;;;;;;;;;;;;;;;;5021404;28;20355;-58
2022/04/29 13:45:32;;;;;;;;;;;;;;;;;;5022970;28;19925;-58
2022/04/29 13:47:57;;;;;;;;;;;;;;;;;;5023005;28;19928;-58
2022/04/29 13:50:22;;;;;;;;;;;;;;;;;;5022618;28;20240;-58
2022/04/29 13:55:32;;;;;;;;;;;;;;;;;;5020513;28;20122;-58
2022/04/29 13:57:57;;;;;;;;;;;;;;;;;;5026564;28;20386;-58
2022/04/29 14:00:22;;;;;;;;;;;;;;;;;;5021218;28;20019;-59
2022/04/29 14:02:49;;;;;;;;;;;;;;;;;;5024489;28;19913;-58
2022/04/29 14:05:14;;;;;;;;;;;;;;;;;;5022020;28;19917;-58
2022/04/29 14:07:40;;;;;;;;;;;;;;;;;;5021397;28;19913;-58
2022/04/29 14:10:06;;;;;;;;;;;;;;;;;;5023813;28;19978;-58
2022/04/29 14:12:32;;;;;;;;;;;;;;;;;;5021354;28;19925;-58
2022/04/29 14:14:57;;;;;;;;;;;;;;;;;;5019131;28;20442;-58
2022/04/29 14:17:23;;;;;;;;;;;;;;;;;;5018871;28;19913;-59
2022/04/29 14:19:48;;;;;;;;;;;;;;;;;;5018790;28;20402;-59
2022/04/29 14:22:14;;;;;;;;;;;;;;;;;;5023007;28;19917;-58
2022/04/29 14:24:40;;;;;;;;;;;;;;;;;;5021095;28;20395;-54
2022/04/29 14:27:05;;;;;;;;;;;;;;;;;;5021494;28;19923;-53
2022/04/29 14:29:35;;;;;;;;;;;;;;;;;;5024609;28;20163;-49
2022/04/29 14:32:04;;;;;;;;;;;;;;;;;;5019145;28;19918;-51
2022/04/29 14:34:32;;;;;;;;;;;;;;;;;;5018401;28;19937;-51
2022/04/29 14:36:57;;;;;;;;;;;;;;;;;;5021871;28;19971;-52
2022/04/29 14:39:22;;;;;;;;;;;;;;;;;;5025968;28;19917;-53
2022/04/29 14:41:48;;;;;;;;;;;;;;;;;;5021826;28;19940;-53
2022/04/29 14:44:14;;;;;;;;;;;;;;;;;;5020438;28;19952;-54
2022/04/29 14:46:40;;;;;;;;;;;;;;;;;;5019299;28;19972;-54
2022/04/29 14:49:06;;;;;;;;;;;;;;;;;;5024676;28;19974;-53
2022/04/29 14:51:31;;;;;;;;;;;;;;;;;;5026610;28;19920;-52
2022/04/29 14:53:57;;;;;;;;;;;;;;;;;;5018225;28;20172;-50
2022/04/29 14:56:22;;;;;;;;;;;;;;;;;;5028596;28;19986;-58
2022/04/29 14:58:49;;;;;;;;;;;;;;;;;;5029824;28;19925;-55
2022/04/29 15:01:15;;;;;;;;;;;;;;;;;;5029136;28;19925;-55
2022/04/29 15:03:41;;;;;;;;;;;;;;;;;;5028657;28;20379;-58
2022/04/29 15:06:06;;;;;;;;;;;;;;;;;;5023838;28;19925;-59
2022/04/29 15:08:31;;;;;;;;;;;;;;;;;;5025894;28;19925;-59
2022/04/29 15:16:35;;;;;;;;;;;;;;;;;;5020554;28;19918;-54
2022/04/29 15:19:01;;;;;;;;;;;;;;;;;;5025319;28;19928;-59
2022/04/29 15:21:26;;;;;;;;;;;;;;;;;;5027081;28;19917;-58
2022/04/29 15:23:51;;;;;;;;;;;;;;;;;;5017422;28;19940;-57
2022/04/29 15:26:17;;;;;;;;;;;;;;;;;;5029674;28;19978;-56
2022/04/29 15:28:42;;;;;;;;;;;;;;;;;;5023503;28;19921;-57
2022/04/29 15:31:08;;;;;;;;;;;;;;;;;;5027536;28;20343;-57
2022/04/29 15:33:33;;;;;;;;;;;;;;;;;;5028558;28;19928;-57
2022/04/29 15:35:58;;;;;;;;;;;;;;;;;;5027976;28;19913;-57
2022/04/29 15:38:24;;;;;;;;;;;;;;;;;;5031840;28;19917;-57
2022/04/29 15:40:52;;;;;;;;;;;;;;;;;;5031132;28;20366;-57
2022/04/29 15:43:18;;;;;;;;;;;;;;;;;;5026559;28;19948;-57
2022/04/29 15:45:45;;;;;;;;;;;;;;;;;;5029957;28;19983;-57
2022/04/29 15:48:11;;;;;;;;;;;;;;;;;;5024575;28;19954;-58
2022/04/29 15:50:36;;;;;;;;;;;;;;;;;;5020340;28;20027;-59
2022/04/29 15:53:02;;;;;;;;;;;;;;;;;;5022138;28;19921;-58
2022/04/29 15:55:27;;;;;;;;;;;;;;;;;;5027157;28;19913;-57
2022/04/29 15:57:52;;;;;;;;;;;;;;;;;;5025629;28;19928;-57
2022/04/29 16:00:18;;;;;;;;;;;;;;;;;;5024314;28;20331;-58
2022/04/29 16:02:43;;;;;;;;;;;;;;;;;;5025166;28;20016;-58
2022/04/29 16:05:08;;;;;;;;;;;;;;;;;;5023424;28;20351;-58
2022/04/29 16:07:34;;;;;;;;;;;;;;;;;;5021475;28;19917;-58
2022/04/29 16:10:00;;;;;;;;;;;;;;;;;;5027570;28;20349;-58
2022/04/29 16:12:25;;;;;;;;;;;;;;;;;;5024816;28;19917;-58
2022/04/29 16:14:51;;;;;;;;;;;;;;;;;;5021695;28;20393;-57
2022/04/29 16:20:31;;;;;;;;;;;;;;;;;;5019195;28;19917;-57
2022/04/29 16:25:35;;;;;;;;;;;;;;;;;;5031051;28;20405;-58
2022/04/29 16:28:01;;;;;;;;;;;;;;;;;;5027417;28;19932;-58
2022/04/29 16:30:28;;;;;;;;;;;;;;;;;;5024219;28;20467;-58
2022/04/29 16:32:53;;;;;;;;;;;;;;;;;;5032185;28;19975;-58
2022/04/29 16:35:18;;;;;;;;;;;;;;;;;;5025920;28;19924;-58
2022/04/29 16:37:44;;;;;;;;;;;;;;;;;;5026136;28;19925;-58
2022/04/29 16:40:10;;;;;;;;;;;;;;;;;;5024829;28;19923;-57
2022/04/29 16:42:35;;;;;;;;;;;;;;;;;;5020336;28;19924;-57
2022/04/29 16:45:01;;;;;;;;;;;;;;;;;;5022522;28;20428;-57
2022/04/29 16:47:26;;;;;;;;;;;;;;;;;;5030739;28;19916;-57
2022/04/29 16:49:52;;;;;;;;;;;;;;;;;;5021853;28;19921;-58
2022/04/29 16:52:17;;;;;;;;;;;;;;;;;;5023762;28;20125;-57
2022/04/29 16:54:42;;;;;;;;;;;;;;;;;;5025757;28;19929;-57
2022/04/29 16:59:51;;;;;;;;;;;;;;;;;;5024440;28;19962;-57
2022/04/29 17:02:17;;;;;;;;;;;;;;;;;;5025092;28;20383;-57
2022/04/29 17:04:42;;;;;;;;;;;;;;;;;;5018577;28;19922;-57
2022/04/29 17:07:07;;;;;;;;;;;;;;;;;;5027668;28;19932;-57
2022/04/29 17:09:33;;;;;;;;;;;;;;;;;;5024412;28;19921;-57
2022/04/29 17:11:58;;;;;;;;;;;;;;;;;;5015284;28;19971;-57
2022/04/29 17:14:23;;;;;;;;;;;;;;;;;;5018824;28;19955;-57
2022/04/29 17:16:49;;;;;;;;;;;;;;;;;;5022437;28;20393;-57
2022/04/29 17:19:14;;;;;;;;;;;;;;;;;;5016237;28;19939;-57
2022/04/29 17:21:40;;;;;;;;;;;;;;;;;;5021001;28;19971;-57
2022/04/29 17:24:05;;;;;;;;;;;;;;;;;;5032756;28;19921;-57
2022/04/29 17:26:36;;;;;;;;;;;;;;;;;;5028826;28;19948;-57
2022/04/29 17:29:02;;;;;;;;;;;;;;;;;;5025498;28;20040;-57